Time;durP1;ratioP1;P1;durP2;ratioP2;P2;SDS_P1;SDS_P2;PMS_P1;PMS_P2;Temp;Humidity;BMP_temperature;BMP_pressure;BME280_temperature;BME280_humidity;BME280_pressure;Samples;Min_cycle;Max_cycle;Signal;HPM_P1;HPM_P2
2023/03/11 00:01:08;;;;;;;12.23;11.23;;;;;;;;;;4983490;28;20233;-90
2023/03/11 00:03:34;;;;;;;11.93;10.90;;;;;;;;;;4967445;28;20220;-89
2023/03/11 00:06:00;;;;;;;12.47;11.37;;;;;;;;;;4990996;28;20664;-87
2023/03/11 00:08:27;;;;;;;11.53;10.43;;;;;;;;;;4984726;28;20335;-87
2023/03/11 00:10:59;;;;;;;11.03;10.07;;;;;;;;;;4979988;28;20874;-89
2023/03/11 00:13:24;;;;;;;13.07;11.80;;;;;;;;;;4986151;28;20217;-87
2023/03/11 00:15:51;;;;;;;13.00;11.83;;;;;;;;;;4998431;28;20246;-89
2023/03/11 00:18:17;;;;;;;12.60;11.40;;;;;;;;;;4982325;28;20647;-87
2023/03/11 00:20:43;;;;;;;13.23;12.03;;;;;;;;;;4986090;28;20223;-88
2023/03/11 00:23:10;;;;;;;14.47;13.00;;;;;;;;;;5010679;28;20224;-88
2023/03/11 00:25:36;;;;;;;13.23;11.93;;;;;;;;;;5016279;28;20255;-87
2023/03/11 00:28:02;;;;;;;11.80;10.70;;;;;;;;;;4983942;28;20892;-89
2023/03/11 00:30:27;;;;;;;12.90;11.80;;;;;;;;;;4989829;28;20252;-89
2023/03/11 00:32:54;;;;;;;13.73;12.47;;;;;;;;;;4982151;28;20592;-88
2023/03/11 00:35:24;;;;;;;13.27;12.07;;;;;;;;;;4973255;28;20315;-85
2023/03/11 00:37:52;;;;;;;12.43;11.23;;;;;;;;;;4984049;28;20228;-90
2023/03/11 00:40:20;;;;;;;13.07;11.80;;;;;;;;;;4978301;28;20243;-88
2023/03/11 00:42:48;;;;;;;13.13;11.93;;;;;;;;;;4999515;28;20236;-88
2023/03/11 00:45:14;;;;;;;13.53;12.23;;;;;;;;;;5001283;28;20424;-89
2023/03/11 00:47:40;;;;;;;13.17;11.97;;;;;;;;;;4987883;28;20217;-89
2023/03/11 00:50:06;;;;;;;13.73;12.43;;;;;;;;;;5016670;28;20228;-88
2023/03/11 00:52:32;;;;;;;13.80;12.63;;;;;;;;;;5000441;28;20205;-89
2023/03/11 00:54:58;;;;;;;13.83;12.63;;;;;;;;;;4959382;28;20232;-86
2023/03/11 00:57:26;;;;;;;14.33;13.10;;;;;;;;;;4961434;28;20593;-88
2023/03/11 00:59:52;;;;;;;13.23;12.03;;;;;;;;;;4976022;28;20600;-87
2023/03/11 01:02:18;;;;;;;13.37;12.20;;;;;;;;;;4974661;28;20221;-88
2023/03/11 01:04:45;;;;;;;15.00;13.47;;;;;;;;;;4969220;28;20219;-89
2023/03/11 01:07:14;;;;;;;14.03;12.70;;;;;;;;;;4970431;28;20237;-88
2023/03/11 01:09:40;;;;;;;13.63;12.40;;;;;;;;;;4977453;28;20332;-90
2023/03/11 01:12:06;;;;;;;13.40;12.27;;;;;;;;;;4971960;28;20251;-88
2023/03/11 01:14:33;;;;;;;14.10;12.80;;;;;;;;;;4981161;28;20619;-89
2023/03/11 01:16:58;;;;;;;14.77;13.37;;;;;;;;;;4965667;28;20228;-89
2023/03/11 01:19:24;;;;;;;14.13;12.83;;;;;;;;;;4999314;28;20219;-88
2023/03/11 01:21:49;;;;;;;13.47;12.27;;;;;;;;;;4992021;28;20224;-91
2023/03/11 01:24:15;;;;;;;12.43;11.27;;;;;;;;;;4973702;28;20224;-89
2023/03/11 01:26:41;;;;;;;13.40;12.20;;;;;;;;;;4959711;28;20354;-88
2023/03/11 01:29:06;;;;;;;12.57;11.47;;;;;;;;;;4969464;28;20696;-89
2023/03/11 01:31:32;;;;;;;12.43;11.33;;;;;;;;;;4983755;28;20228;-88
2023/03/11 01:33:57;;;;;;;13.03;11.83;;;;;;;;;;4984141;28;20224;-88
2023/03/11 01:36:25;;;;;;;12.83;11.73;;;;;;;;;;4980805;28;20228;-88
2023/03/11 01:38:51;;;;;;;11.77;10.77;;;;;;;;;;4992863;28;20570;-90
2023/03/11 01:41:19;;;;;;;11.57;10.67;;;;;;;;;;4964400;28;20250;-89
2023/03/11 01:43:44;;;;;;;12.30;11.10;;;;;;;;;;4967215;28;20303;-88
2023/03/11 01:46:32;;;;;;;12.07;10.97;;;;;;;;;;4983443;28;20227;-89
2023/03/11 01:48:59;;;;;;;11.77;10.77;;;;;;;;;;4976143;28;20217;-89
2023/03/11 01:51:29;;;;;;;12.73;11.33;;;;;;;;;;4979613;28;20221;-89
2023/03/11 01:53:56;;;;;;;11.80;10.77;;;;;;;;;;4990449;28;20208;-88
2023/03/11 01:56:25;;;;;;;12.07;11.07;;;;;;;;;;4981994;28;20236;-86
2023/03/11 01:58:51;;;;;;;12.47;11.20;;;;;;;;;;4971903;28;20217;-87
2023/03/11 02:01:17;;;;;;;12.20;11.10;;;;;;;;;;4970212;28;20221;-88
2023/03/11 02:03:43;;;;;;;11.73;10.73;;;;;;;;;;4980087;28;20224;-89
2023/03/11 02:06:14;;;;;;;12.73;11.57;;;;;;;;;;4985597;28;20388;-89
2023/03/11 02:08:40;;;;;;;12.67;11.57;;;;;;;;;;4968145;28;20222;-88
2023/03/11 02:11:08;;;;;;;13.03;11.93;;;;;;;;;;4980167;28;20327;-88
2023/03/11 02:13:35;;;;;;;12.47;11.37;;;;;;;;;;4952762;28;20220;-89
2023/03/11 02:16:02;;;;;;;12.53;11.43;;;;;;;;;;4975062;28;20229;-90
2023/03/11 02:18:27;;;;;;;12.53;11.33;;;;;;;;;;4971331;28;20239;-88
2023/03/11 02:20:56;;;;;;;17.03;11.10;;;;;;;;;;4974805;28;20213;-90
2023/03/11 02:23:23;;;;;;;11.03;10.13;;;;;;;;;;4989680;28;20594;-88
2023/03/11 02:26:16;;;;;;;12.70;11.60;;;;;;;;;;4980554;28;20227;-89
2023/03/11 02:28:42;;;;;;;11.97;10.93;;;;;;;;;;4984663;28;20682;-88
2023/03/11 02:31:08;;;;;;;12.70;11.60;;;;;;;;;;4979789;28;20223;-88
2023/03/11 02:33:34;;;;;;;12.20;11.10;;;;;;;;;;4982066;28;20704;-88
2023/03/11 02:36:00;;;;;;;12.13;11.13;;;;;;;;;;5013962;28;20228;-88
2023/03/11 02:38:25;;;;;;;12.93;11.63;;;;;;;;;;4996605;28;20220;-89
2023/03/11 02:40:58;;;;;;;12.73;11.60;;;;;;;;;;4957800;28;20212;-90
2023/03/11 02:43:33;;;;;;;13.60;12.20;;;;;;;;;;4985590;28;20239;-89
2023/03/11 02:45:59;;;;;;;12.70;11.57;;;;;;;;;;5000888;28;20216;-88
2023/03/11 02:48:25;;;;;;;13.90;12.53;;;;;;;;;;4964369;28;20216;-88
2023/03/11 02:50:50;;;;;;;12.47;11.40;;;;;;;;;;4995101;28;20224;-89
2023/03/11 02:53:17;;;;;;;12.77;11.57;;;;;;;;;;4980153;28;20250;-89
2023/03/11 02:55:43;;;;;;;13.60;12.30;;;;;;;;;;4990312;28;20294;-88
2023/03/11 02:58:09;;;;;;;12.80;11.60;;;;;;;;;;4957181;28;20207;-88
2023/03/11 03:00:34;;;;;;;14.33;12.90;;;;;;;;;;4967217;28;20212;-87
2023/03/11 03:03:07;;;;;;;14.53;13.03;;;;;;;;;;4991572;28;20783;-87
2023/03/11 03:05:35;;;;;;;13.87;12.67;;;;;;;;;;4985271;28;20227;-87
2023/03/11 03:08:01;;;;;;;13.40;12.20;;;;;;;;;;4980019;28;20204;-90
2023/03/11 03:10:27;;;;;;;13.40;12.30;;;;;;;;;;4981249;28;20607;-87
2023/03/11 03:12:53;;;;;;;14.10;12.70;;;;;;;;;;4995379;28;20940;-87
2023/03/11 03:15:18;;;;;;;14.57;13.17;;;;;;;;;;4987288;28;20236;-87
2023/03/11 03:17:47;;;;;;;13.30;12.10;;;;;;;;;;4969167;28;20216;-88
2023/03/11 03:20:13;;;;;;;13.93;12.73;;;;;;;;;;4983651;28;20219;-87
2023/03/11 03:22:42;;;;;;;13.40;12.13;;;;;;;;;;4984938;28;20275;-87
2023/03/11 03:25:10;;;;;;;13.97;12.77;;;;;;;;;;4984325;28;20565;-87
2023/03/11 03:27:37;;;;;;;13.13;11.93;;;;;;;;;;4962612;28;20255;-87
2023/03/11 03:30:05;;;;;;;11.43;10.43;;;;;;;;;;5002753;28;20248;-87
2023/03/11 03:32:30;;;;;;;7.33;6.73;;;;;;;;;;4994253;28;20247;-87
2023/03/11 03:35:01;;;;;;;5.93;5.43;;;;;;;;;;4970103;28;20232;-89
2023/03/11 03:37:43;;;;;;;6.07;5.33;;;;;;;;;;4977563;28;20212;-89
2023/03/11 03:40:10;;;;;;;5.47;4.97;;;;;;;;;;4972588;28;20281;-88
2023/03/11 03:42:36;;;;;;;5.10;4.60;;;;;;;;;;4984024;28;20681;-88
2023/03/11 03:45:05;;;;;;;4.87;4.47;;;;;;;;;;4976880;28;20220;-89
2023/03/11 03:47:31;;;;;;;5.33;4.83;;;;;;;;;;4974651;28;20227;-90
2023/03/11 03:49:57;;;;;;;5.23;4.50;;;;;;;;;;4976316;28;20221;-89
2023/03/11 03:52:29;;;;;;;4.93;4.53;;;;;;;;;;4974232;28;20224;-87
2023/03/11 03:54:55;;;;;;;4.63;4.33;;;;;;;;;;4966606;28;20271;-88
2023/03/11 03:57:20;;;;;;;5.00;4.50;;;;;;;;;;4985009;28;20245;-87
2023/03/11 03:59:46;;;;;;;4.27;3.97;;;;;;;;;;4980326;28;20252;-88
2023/03/11 04:02:12;;;;;;;4.77;4.27;;;;;;;;;;4976077;28;20227;-87
2023/03/11 04:04:38;;;;;;;4.97;4.57;;;;;;;;;;5000416;28;20212;-89
2023/03/11 04:07:04;;;;;;;4.60;4.20;;;;;;;;;;4988008;28;20216;-86
2023/03/11 04:09:31;;;;;;;6.07;4.70;;;;;;;;;;4970670;28;20279;-88
2023/03/11 04:11:58;;;;;;;4.93;4.53;;;;;;;;;;4972823;28;20223;-87
2023/03/11 04:14:25;;;;;;;5.30;4.80;;;;;;;;;;5002252;28;20283;-88
2023/03/11 04:16:59;;;;;;;5.10;4.70;;;;;;;;;;4974542;28;20228;-89
2023/03/11 04:19:26;;;;;;;5.00;4.40;;;;;;;;;;4993301;28;20303;-87
2023/03/11 04:21:51;;;;;;;7.30;4.87;;;;;;;;;;5006442;28;20212;-88
2023/03/11 04:24:18;;;;;;;5.67;5.03;;;;;;;;;;4981643;28;20682;-88
2023/03/11 04:26:46;;;;;;;5.10;4.70;;;;;;;;;;5002294;28;20223;-88
2023/03/11 04:29:15;;;;;;;4.60;4.23;;;;;;;;;;4989083;28;20215;-87
2023/03/11 04:31:46;;;;;;;5.03;4.63;;;;;;;;;;4989694;28;20216;-89
2023/03/11 04:34:12;;;;;;;5.17;4.67;;;;;;;;;;4985940;28;20763;-89
2023/03/11 04:36:38;;;;;;;4.90;4.50;;;;;;;;;;4986843;28;20239;-87
2023/03/11 04:39:05;;;;;;;4.23;3.93;;;;;;;;;;4982848;28;20227;-88
2023/03/11 04:41:56;;;;;;;5.10;4.60;;;;;;;;;;4974388;28;20254;-89
2023/03/11 04:44:24;;;;;;;4.67;4.27;;;;;;;;;;4963916;28;20298;-89
2023/03/11 04:46:50;;;;;;;5.30;4.10;;;;;;;;;;4956222;28;20237;-79
2023/03/11 04:49:15;;;;;;;6.27;4.10;;;;;;;;;;4988382;28;20245;-79
2023/03/11 04:51:41;;;;;;;4.63;4.20;;;;;;;;;;4972992;28;20216;-80
2023/03/11 04:54:10;;;;;;;4.80;4.03;;;;;;;;;;4975098;28;20212;-79
2023/03/11 04:56:37;;;;;;;4.67;4.27;;;;;;;;;;4982460;28;20255;-81
2023/03/11 04:59:06;;;;;;;4.83;4.17;;;;;;;;;;4988807;28;20227;-79
2023/03/11 05:01:34;;;;;;;4.13;3.73;;;;;;;;;;4992878;28;20212;-82
2023/03/11 05:04:02;;;;;;;3.97;3.57;;;;;;;;;;4988483;28;20361;-80
2023/03/11 05:06:28;;;;;;;5.67;3.30;;;;;;;;;;4974991;28;20715;-80
2023/03/11 05:08:54;;;;;;;4.13;3.23;;;;;;;;;;4972998;28;20223;-79
2023/03/11 05:11:20;;;;;;;3.93;3.37;;;;;;;;;;4974425;28;20224;-80
2023/03/11 05:13:52;;;;;;;3.57;3.27;;;;;;;;;;4994584;28;20212;-81
2023/03/11 05:16:18;;;;;;;3.67;3.10;;;;;;;;;;4987760;28;20244;-79
2023/03/11 05:18:44;;;;;;;3.00;2.80;;;;;;;;;;4991496;28;20234;-81
2023/03/11 05:21:13;;;;;;;4.70;3.50;;;;;;;;;;4975923;28;20983;-81
2023/03/11 05:23:38;;;;;;;4.40;3.10;;;;;;;;;;4977119;28;20231;-81
2023/03/11 05:26:07;;;;;;;3.50;2.93;;;;;;;;;;4974095;28;20319;-80
2023/03/11 05:28:33;;;;;;;4.37;3.10;;;;;;;;;;4979604;28;20233;-81
2023/03/11 05:31:01;;;;;;;4.60;2.83;;;;;;;;;;4975158;28;20216;-80
2023/03/11 05:33:34;;;;;;;3.50;3.20;;;;;;;;;;4981788;28;20227;-79
2023/03/11 05:36:05;;;;;;;3.13;2.70;;;;;;;;;;4998849;28;20228;-81
2023/03/11 05:38:32;;;;;;;3.30;3.00;;;;;;;;;;4979706;28;20275;-80
2023/03/11 05:40:59;;;;;;;3.53;2.80;;;;;;;;;;4984345;28;20235;-81
2023/03/11 05:43:25;;;;;;;3.50;3.20;;;;;;;;;;4997267;28;20220;-80
2023/03/11 05:45:53;;;;;;;5.60;3.67;;;;;;;;;;4982741;28;20251;-78
2023/03/11 05:48:19;;;;;;;6.53;4.40;;;;;;;;;;4963086;28;21183;-80
2023/03/11 05:50:44;;;;;;;3.87;3.47;;;;;;;;;;4981968;28;20224;-80
2023/03/11 05:53:13;;;;;;;4.33;3.93;;;;;;;;;;4993044;28;20226;-81
2023/03/11 05:55:38;;;;;;;4.37;3.63;;;;;;;;;;4993803;28;20234;-80
2023/03/11 05:58:04;;;;;;;3.87;3.50;;;;;;;;;;4995617;28;20225;-80
2023/03/11 06:00:32;;;;;;;9.37;3.90;;;;;;;;;;4990294;28;20224;-81
2023/03/11 06:03:01;;;;;;;6.80;3.90;;;;;;;;;;4977147;28;20957;-80
2023/03/11 06:05:26;;;;;;;4.40;4.00;;;;;;;;;;4989853;28;20225;-80
2023/03/11 06:07:53;;;;;;;5.30;4.20;;;;;;;;;;4972727;28;20220;-80
2023/03/11 06:10:24;;;;;;;5.10;4.60;;;;;;;;;;4990219;28;20224;-80
2023/03/11 06:12:52;;;;;;;4.53;4.13;;;;;;;;;;4988605;28;20223;-81
2023/03/11 06:15:22;;;;;;;4.57;4.27;;;;;;;;;;4988895;28;22746;-80
2023/03/11 06:17:48;;;;;;;5.00;4.60;;;;;;;;;;4974002;28;20221;-81
2023/03/11 06:20:14;;;;;;;4.33;4.00;;;;;;;;;;4991505;28;20223;-79
2023/03/11 06:22:40;;;;;;;4.60;3.80;;;;;;;;;;4993114;28;20216;-80
2023/03/11 06:25:07;;;;;;;4.07;3.73;;;;;;;;;;4989000;28;20965;-81
2023/03/11 06:27:33;;;;;;;6.77;4.30;;;;;;;;;;5002799;28;20666;-81
2023/03/11 06:29:59;;;;;;;4.17;3.63;;;;;;;;;;4989244;28;20212;-81
2023/03/11 06:32:28;;;;;;;4.20;3.80;;;;;;;;;;4975572;28;20246;-79
2023/03/11 06:34:54;;;;;;;8.00;3.93;;;;;;;;;;4957256;28;20223;-80
2023/03/11 06:37:22;;;;;;;4.03;3.63;;;;;;;;;;4978841;28;20283;-80
2023/03/11 06:39:53;;;;;;;4.63;3.73;;;;;;;;;;4973443;28;20230;-80
2023/03/11 06:42:25;;;;;;;4.07;3.67;;;;;;;;;;5012649;28;20203;-79
2023/03/11 06:44:54;;;;;;;4.63;3.90;;;;;;;;;;4988592;28;20295;-79
2023/03/11 06:47:22;;;;;;;4.53;3.60;;;;;;;;;;4991238;28;20229;-80
2023/03/11 06:49:51;;;;;;;4.30;3.90;;;;;;;;;;4991091;28;20216;-80
2023/03/11 06:52:21;;;;;;;4.60;4.03;;;;;;;;;;4987814;28;20223;-79
2023/03/11 06:54:47;;;;;;;5.67;4.07;;;;;;;;;;5005091;28;20220;-80
2023/03/11 06:57:17;;;;;;;4.30;3.90;;;;;;;;;;4990792;28;20234;-79
2023/03/11 06:59:44;;;;;;;4.97;4.20;;;;;;;;;;4951799;28;21627;-83
2023/03/11 07:02:13;;;;;;;6.13;5.63;;;;;;;;;;4974932;28;20259;-78
2023/03/11 07:04:40;;;;;;;6.57;5.17;;;;;;;;;;4990772;28;20219;-79
2023/03/11 07:07:06;;;;;;;7.13;5.07;;;;;;;;;;5007314;28;20242;-80
2023/03/11 07:09:31;;;;;;;8.33;5.40;;;;;;;;;;4992235;28;20255;-79
2023/03/11 07:11:57;;;;;;;5.00;4.57;;;;;;;;;;4976687;28;20215;-80
2023/03/11 07:14:29;;;;;;;5.07;4.53;;;;;;;;;;4978158;28;20270;-81
2023/03/11 07:16:55;;;;;;;5.93;5.33;;;;;;;;;;4976125;28;20262;-81
2023/03/11 07:19:34;;;;;;;4.80;4.27;;;;;;;;;;4968583;28;20227;-81
2023/03/11 07:22:00;;;;;;;5.83;4.53;;;;;;;;;;4990787;28;20232;-81
2023/03/11 07:24:25;;;;;;;4.90;4.27;;;;;;;;;;4974385;28;20230;-80
2023/03/11 07:26:50;;;;;;;4.93;4.53;;;;;;;;;;5007977;28;20216;-81
2023/03/11 07:29:16;;;;;;;7.70;5.73;;;;;;;;;;4989242;28;20298;-80
2023/03/11 07:31:42;;;;;;;7.00;4.90;;;;;;;;;;4990881;28;20231;-82
2023/03/11 07:34:10;;;;;;;5.47;4.97;;;;;;;;;;5005402;28;20220;-82
2023/03/11 07:36:35;;;;;;;6.50;5.73;;;;;;;;;;5005225;28;20264;-82
2023/03/11 07:39:03;;;;;;;6.60;6.03;;;;;;;;;;4970907;28;20234;-80
2023/03/11 07:41:29;;;;;;;6.87;6.27;;;;;;;;;;5011662;28;20219;-82
2023/03/11 07:43:56;;;;;;;6.07;5.57;;;;;;;;;;4992586;28;20237;-80
2023/03/11 07:46:22;;;;;;;6.80;6.20;;;;;;;;;;5008606;28;20271;-82
2023/03/11 07:48:53;;;;;;;11.17;7.77;;;;;;;;;;5006043;28;20711;-80
2023/03/11 07:51:20;;;;;;;8.73;7.87;;;;;;;;;;4979169;28;20239;-81
2023/03/11 07:53:48;;;;;;;8.57;7.00;;;;;;;;;;4978215;28;20228;-80
2023/03/11 07:56:14;;;;;;;7.13;6.43;;;;;;;;;;5001216;28;20243;-79
2023/03/11 07:58:40;;;;;;;11.80;7.13;;;;;;;;;;5022501;28;20291;-80
2023/03/11 08:01:11;;;;;;;7.20;6.50;;;;;;;;;;4995375;28;20220;-81
2023/03/11 08:03:36;;;;;;;8.17;6.30;;;;;;;;;;4998769;28;20232;-79
2023/03/11 08:06:35;;;;;;;7.43;6.30;;;;;;;;;;5014102;28;20244;-79
2023/03/11 08:09:04;;;;;;;6.53;5.20;;;;;;;;;;5008559;28;20223;-79
2023/03/11 08:11:30;;;;;;;7.37;6.67;;;;;;;;;;5011365;28;20276;-78
2023/03/11 08:13:57;;;;;;;7.33;6.63;;;;;;;;;;5026153;28;20290;-78
2023/03/11 08:16:23;;;;;;;6.43;5.83;;;;;;;;;;4995138;28;20395;-78
2023/03/11 08:18:51;;;;;;;12.10;10.00;;;;;;;;;;5010243;28;20295;-78
2023/03/11 08:21:21;;;;;;;7.17;6.47;;;;;;;;;;4977403;28;20315;-80
2023/03/11 08:23:49;;;;;;;8.03;7.23;;;;;;;;;;4986347;28;20526;-79
2023/03/11 08:26:17;;;;;;;7.83;7.10;;;;;;;;;;5005368;28;20408;-79
2023/03/11 08:28:45;;;;;;;7.40;6.73;;;;;;;;;;4989895;28;20582;-79
2023/03/11 08:31:18;;;;;;;7.27;6.47;;;;;;;;;;4996684;28;20243;-77
2023/03/11 08:33:44;;;;;;;7.70;6.47;;;;;;;;;;5033674;28;20225;-80
2023/03/11 08:36:10;;;;;;;20.47;18.37;;;;;;;;;;5010421;28;20229;-77
2023/03/11 08:38:36;;;;;;;10.20;9.07;;;;;;;;;;5008298;28;20259;-77
2023/03/11 08:41:04;;;;;;;7.67;6.87;;;;;;;;;;5021668;28;20230;-78
2023/03/11 08:43:31;;;;;;;7.97;7.10;;;;;;;;;;4997604;28;20224;-79
2023/03/11 08:46:00;;;;;;;8.20;7.50;;;;;;;;;;5007942;28;20244;-78
2023/03/11 08:48:25;;;;;;;9.70;7.53;;;;;;;;;;4961710;28;20310;-79
2023/03/11 08:50:51;;;;;;;7.17;6.67;;;;;;;;;;4959836;28;20216;-79
2023/03/11 08:53:17;;;;;;;8.30;7.60;;;;;;;;;;4997833;28;20962;-80
2023/03/11 08:55:42;;;;;;;7.53;6.73;;;;;;;;;;4982893;28;20229;-79
2023/03/11 08:58:08;;;;;;;6.70;6.10;;;;;;;;;;4994819;28;20227;-80
2023/03/11 09:00:33;;;;;;;7.93;7.13;;;;;;;;;;4968652;28;20220;-79
2023/03/11 09:03:01;;;;;;;7.90;7.10;;;;;;;;;;4997014;28;20290;-80
2023/03/11 09:05:26;;;;;;;7.77;7.07;;;;;;;;;;4997148;28;20701;-79
2023/03/11 09:07:52;;;;;;;6.80;6.17;;;;;;;;;;4995611;28;20221;-78
2023/03/11 09:10:20;;;;;;;6.20;5.70;;;;;;;;;;4997416;28;20230;-79
2023/03/11 09:12:48;;;;;;;7.63;6.90;;;;;;;;;;4982863;28;20221;-78
2023/03/11 09:15:14;;;;;;;7.07;6.23;;;;;;;;;;4998686;28;20758;-79
2023/03/11 09:17:39;;;;;;;6.40;5.90;;;;;;;;;;4997231;28;20220;-78
2023/03/11 09:20:05;;;;;;;7.60;7.00;;;;;;;;;;5009360;28;20213;-80
2023/03/11 09:22:33;;;;;;;6.90;6.20;;;;;;;;;;4997567;28;20231;-81
2023/03/11 09:24:59;;;;;;;6.47;5.87;;;;;;;;;;4994187;28;20220;-80
2023/03/11 09:27:24;;;;;;;7.03;5.50;;;;;;;;;;4978188;28;20221;-79
2023/03/11 09:29:52;;;;;;;9.80;6.27;;;;;;;;;;4984547;28;20212;-80
2023/03/11 09:32:20;;;;;;;6.10;5.60;;;;;;;;;;4995694;28;20252;-80
2023/03/11 09:34:48;;;;;;;6.47;5.77;;;;;;;;;;4980741;28;21066;-80
2023/03/11 09:37:13;;;;;;;7.00;6.20;;;;;;;;;;4987932;28;20603;-79
2023/03/11 09:39:41;;;;;;;6.27;5.67;;;;;;;;;;4996454;28;20231;-79
2023/03/11 09:42:26;;;;;;;7.30;6.43;;;;;;;;;;5007620;28;20225;-79
2023/03/11 09:45:17;;;;;;;7.77;6.33;;;;;;;;;;4998517;28;20230;-80
2023/03/11 09:47:57;;;;;;;6.70;6.10;;;;;;;;;;4994898;28;20273;-78
2023/03/11 09:50:31;;;;;;;6.87;6.17;;;;;;;;;;5002018;28;20221;-79
2023/03/11 09:53:00;;;;;;;7.53;6.10;;;;;;;;;;4983390;28;20451;-78
2023/03/11 09:55:43;;;;;;;5.67;5.17;;;;;;;;;;4997987;28;20236;-78
2023/03/11 09:58:12;;;;;;;6.53;5.93;;;;;;;;;;4996777;28;20228;-78
2023/03/11 10:00:38;;;;;;;7.63;6.03;;;;;;;;;;4977246;28;20610;-77
2023/03/11 10:03:06;;;;;;;9.20;5.67;;;;;;;;;;4997211;28;20231;-78
2023/03/11 10:05:32;;;;;;;7.63;5.77;;;;;;;;;;4969227;28;20233;-78
2023/03/11 10:08:20;;;;;;;7.00;5.13;;;;;;;;;;4979652;28;20252;-78
2023/03/11 10:10:50;;;;;;;5.83;5.03;;;;;;;;;;5010843;28;20413;-79
2023/03/11 10:13:25;;;;;;;5.50;4.60;;;;;;;;;;4978521;28;20255;-79
2023/03/11 10:16:09;;;;;;;5.67;5.10;;;;;;;;;;4987934;28;20735;-78
2023/03/11 10:18:43;;;;;;;6.03;4.40;;;;;;;;;;5003305;28;20650;-78
2023/03/11 10:21:28;;;;;;;6.00;5.03;;;;;;;;;;5016187;28;20224;-78
2023/03/11 10:24:30;;;;;;;6.43;4.87;;;;;;;;;;5006656;28;20224;-78
2023/03/11 10:27:00;;;;;;;5.63;4.20;;;;;;;;;;4997273;28;20231;-79
2023/03/11 10:29:28;;;;;;;6.00;3.77;;;;;;;;;;4981386;28;20220;-82
2023/03/11 10:33:21;;;;;;;6.67;3.93;;;;;;;;;;5004505;28;20314;-80
2023/03/11 10:36:02;;;;;;;6.33;3.57;;;;;;;;;;5005738;28;20965;-80
2023/03/11 10:38:45;;;;;;;5.97;3.17;;;;;;;;;;4994475;28;20225;-77
2023/03/11 10:41:48;;;;;;;4.90;3.90;;;;;;;;;;4993708;28;20689;-79
2023/03/11 10:44:20;;;;;;;7.73;3.57;;;;;;;;;;5004140;28;20235;-80
2023/03/11 10:46:46;;;;;;;6.37;4.27;;;;;;;;;;4992318;28;20236;-80
2023/03/11 10:49:15;;;;;;;5.73;3.90;;;;;;;;;;5018735;28;20225;-79
2023/03/11 10:51:43;;;;;;;4.50;3.70;;;;;;;;;;4997039;28;20229;-79
2023/03/11 10:54:19;;;;;;;5.33;4.27;;;;;;;;;;4996924;28;20235;-79
2023/03/11 10:56:45;;;;;;;5.13;3.40;;;;;;;;;;5006689;28;20228;-79
2023/03/11 10:59:49;;;;;;;5.23;2.10;;;;;;;;;;4993213;28;20219;-84
2023/03/11 11:02:25;;;;;;;3.20;1.97;;;;;;;;;;5005379;28;20224;-86
2023/03/11 11:05:21;;;;;;;2.10;1.63;;;;;;;;;;4995386;28;20216;-86
2023/03/11 11:07:54;;;;;;;1.30;1.20;;;;;;;;;;4993552;28;20232;-85
2023/03/11 11:10:24;;;;;;;2.70;1.53;;;;;;;;;;4985787;28;20236;-86
2023/03/11 11:13:21;;;;;;;0.10;0.10;;;;;;;;;;4997257;28;20220;-86
2023/03/11 11:16:11;;;;;;;0.10;0.10;;;;;;;;;;5011250;28;20235;-84
2023/03/11 11:18:49;;;;;;;0.20;0.20;;;;;;;;;;5031474;28;20216;-83
2023/03/11 11:21:36;;;;;;;0.10;0.10;;;;;;;;;;4970681;28;20224;-82
2023/03/11 11:24:14;;;;;;;0.10;0.10;;;;;;;;;;4979353;28;20227;-85
2023/03/11 11:26:40;;;;;;;0.10;0.10;;;;;;;;;;5003715;28;20639;-85
2023/03/11 11:29:13;;;;;;;0.10;0.10;;;;;;;;;;4977841;28;20266;-83
2023/03/11 11:31:43;;;;;;;1.70;1.60;;;;;;;;;;5020331;28;20212;-84
2023/03/11 11:34:35;;;;;;;0.00;0.00;;;;;;;;;;4995528;28;20227;-84
2023/03/11 11:37:03;;;;;;;0.10;0.10;;;;;;;;;;5002489;28;20232;-86
2023/03/11 11:39:50;;;;;;;0.10;0.10;;;;;;;;;;4982797;28;20299;-85
2023/03/11 11:42:23;;;;;;;0.10;0.10;;;;;;;;;;4986133;28;20731;-83
2023/03/11 11:45:18;;;;;;;0.10;0.10;;;;;;;;;;5000496;28;20221;-85
2023/03/11 11:47:48;;;;;;;0.20;0.20;;;;;;;;;;4992336;28;20246;-87
2023/03/11 11:50:40;;;;;;;0.10;0.10;;;;;;;;;;4984442;28;20220;-85
2023/03/11 11:53:53;;;;;;;0.10;0.10;;;;;;;;;;4981255;28;20299;-84
2023/03/11 11:56:18;;;;;;;0.10;0.10;;;;;;;;;;4939739;29;20234;-84
2023/03/11 11:58:47;;;;;;;0.10;0.10;;;;;;;;;;4910563;29;20219;-84
2023/03/11 12:01:26;;;;;;;0.93;0.47;;;;;;;;;;4969435;28;20220;-83
2023/03/11 12:03:54;;;;;;;0.10;0.10;;;;;;;;;;5017021;28;20247;-84
2023/03/11 12:06:41;;;;;;;0.10;0.10;;;;;;;;;;5015311;28;20232;-85
2023/03/11 12:09:07;;;;;;;0.10;0.10;;;;;;;;;;5019548;28;20244;-85
2023/03/11 12:11:36;;;;;;;0.43;0.43;;;;;;;;;;5002794;28;21182;-83
2023/03/11 12:14:16;;;;;;;0.77;0.77;;;;;;;;;;5002866;28;20695;-86
2023/03/11 12:16:56;;;;;;;0.60;0.60;;;;;;;;;;5000906;28;20235;-83
2023/03/11 12:19:41;;;;;;;0.10;0.10;;;;;;;;;;5002172;28;20788;-87
2023/03/11 12:22:13;;;;;;;0.40;0.40;;;;;;;;;;5003730;28;20215;-87
2023/03/11 12:25:08;;;;;;;0.17;0.17;;;;;;;;;;5016937;28;20224;-84
2023/03/11 12:28:08;;;;;;;0.30;0.30;;;;;;;;;;4993956;28;20224;-85
2023/03/11 12:31:09;;;;;;;0.10;0.10;;;;;;;;;;5047076;28;20227;-83
2023/03/11 12:33:47;;;;;;;0.10;0.10;;;;;;;;;;4967134;28;20231;-82
2023/03/11 12:36:28;;;;;;;0.20;0.20;;;;;;;;;;5011329;28;20323;-85
2023/03/11 12:38:54;;;;;;;0.10;0.10;;;;;;;;;;5011126;28;20239;-83
2023/03/11 12:41:28;;;;;;;0.10;0.10;;;;;;;;;;4992916;28;20220;-87
2023/03/11 12:44:01;;;;;;;0.10;0.10;;;;;;;;;;5001389;28;20220;-84
2023/03/11 12:47:11;;;;;;;0.10;0.10;;;;;;;;;;4997197;28;20232;-86
2023/03/11 12:49:50;;;;;;;0.10;0.10;;;;;;;;;;4999692;28;20228;-83
2023/03/11 12:52:26;;;;;;;0.10;0.10;;;;;;;;;;4989701;28;20223;-84
2023/03/11 12:54:57;;;;;;;0.10;0.10;;;;;;;;;;5004907;28;20224;-86
2023/03/11 12:57:34;;;;;;;0.10;0.10;;;;;;;;;;5026461;28;20239;-88
2023/03/11 13:00:24;;;;;;;0.30;0.30;;;;;;;;;;4962727;28;20601;-86
2023/03/11 13:03:02;;;;;;;0.30;0.30;;;;;;;;;;4998830;28;20300;-82
2023/03/11 13:05:43;;;;;;;0.10;0.10;;;;;;;;;;4995123;28;20299;-84
2023/03/11 13:08:22;;;;;;;0.10;0.10;;;;;;;;;;5020486;28;20220;-86
2023/03/11 13:10:49;;;;;;;0.10;0.10;;;;;;;;;;5000456;28;20231;-85
2023/03/11 13:13:41;;;;;;;2.20;0.77;;;;;;;;;;4989195;28;20216;-86
2023/03/11 13:16:15;;;;;;;0.30;0.30;;;;;;;;;;4990433;28;20890;-88
2023/03/11 13:18:47;;;;;;;0.10;0.10;;;;;;;;;;5001189;28;20303;-85
2023/03/11 13:21:31;;;;;;;0.10;0.10;;;;;;;;;;4983709;28;20310;-83
2023/03/11 13:24:21;;;;;;;0.43;0.43;;;;;;;;;;4996395;28;20223;-85
2023/03/11 13:27:03;;;;;;;3.43;1.83;;;;;;;;;;5015109;28;20230;-87
2023/03/11 13:29:57;;;;;;;2.50;1.90;;;;;;;;;;4996411;28;20729;-86
2023/03/11 13:32:46;;;;;;;3.20;2.10;;;;;;;;;;5011574;28;20219;-83
2023/03/11 13:35:33;;;;;;;2.97;2.30;;;;;;;;;;4992742;28;20985;-87
2023/03/11 13:38:37;;;;;;;2.77;2.27;;;;;;;;;;5010288;28;20219;-82
2023/03/11 13:41:02;;;;;;;3.70;1.90;;;;;;;;;;5015266;28;20220;-85
2023/03/11 13:43:30;;;;;;;6.20;3.10;;;;;;;;;;4971866;28;20919;-86
2023/03/11 13:46:00;;;;;;;5.17;4.03;;;;;;;;;;4990944;28;20236;-84
2023/03/11 13:48:45;;;;;;;2.03;1.70;;;;;;;;;;4996831;28;20220;-84
2023/03/11 13:51:34;;;;;;;5.27;1.90;;;;;;;;;;4981822;28;20238;-85
2023/03/11 13:54:16;;;;;;;3.77;1.80;;;;;;;;;;4994426;28;20704;-83
2023/03/11 13:56:53;;;;;;;5.30;1.50;;;;;;;;;;5015369;28;20296;-83
2023/03/11 13:59:21;;;;;;;4.37;1.73;;;;;;;;;;4982089;28;20220;-85
2023/03/11 14:01:50;;;;;;;4.17;1.57;;;;;;;;;;4997285;28;20236;-86
2023/03/11 14:04:23;;;;;;;1.83;1.40;;;;;;;;;;4978071;28;20307;-85
2023/03/11 14:06:54;;;;;;;3.87;1.53;;;;;;;;;;4970916;28;20229;-84
2023/03/11 14:09:22;;;;;;;4.67;1.60;;;;;;;;;;4965670;28;20213;-86
2023/03/11 14:11:50;;;;;;;3.93;1.87;;;;;;;;;;4999035;28;20208;-85
2023/03/11 14:14:28;;;;;;;4.40;1.67;;;;;;;;;;4999542;28;20231;-85
2023/03/11 14:16:56;;;;;;;5.20;1.40;;;;;;;;;;5021114;28;20235;-87
2023/03/11 14:19:22;;;;;;;4.10;1.30;;;;;;;;;;4957416;28;20694;-83
2023/03/11 14:21:50;;;;;;;1.80;1.30;;;;;;;;;;4988083;28;20315;-83
2023/03/11 14:24:22;;;;;;;2.77;1.30;;;;;;;;;;4960204;28;20211;-84
2023/03/11 14:26:54;;;;;;;3.57;1.27;;;;;;;;;;4990261;28;20228;-85
2023/03/11 14:29:32;;;;;;;1.93;1.30;;;;;;;;;;4983862;28;20225;-85
2023/03/11 14:31:58;;;;;;;2.00;1.43;;;;;;;;;;4979778;28;20720;-83
2023/03/11 14:34:29;;;;;;;2.53;1.23;;;;;;;;;;4982043;28;20219;-84
2023/03/11 14:36:58;;;;;;;2.93;1.50;;;;;;;;;;4980209;28;20228;-85
2023/03/11 14:39:29;;;;;;;2.43;1.20;;;;;;;;;;4998046;28;20250;-84
2023/03/11 14:42:22;;;;;;;2.83;1.13;;;;;;;;;;5015032;28;20235;-87
2023/03/11 14:45:09;;;;;;;2.97;1.27;;;;;;;;;;4966319;28;20343;-84
2023/03/11 14:47:39;;;;;;;3.93;1.00;;;;;;;;;;4977586;28;20224;-81
2023/03/11 14:50:20;;;;;;;1.67;1.37;;;;;;;;;;5010817;28;20220;-80
2023/03/11 14:52:50;;;;;;;1.50;1.20;;;;;;;;;;4996029;28;20228;-82
2023/03/11 14:55:30;;;;;;;2.17;1.13;;;;;;;;;;4981960;28;20219;-84
2023/03/11 14:58:03;;;;;;;3.27;1.90;;;;;;;;;;4976199;28;20216;-80
2023/03/11 15:00:31;;;;;;;2.27;1.30;;;;;;;;;;4999561;28;20288;-81